sensor_id;sensor_type;location;lat;lon;timestamp;P1;durP1;ratioP1;P2;durP2;ratioP2
23668;SDS011;12011;47.422;15.018;2023-02-28T00:02:04;3.36;;;3.35;;
23668;SDS011;12011;47.422;15.018;2023-02-28T00:04:33;3.42;;;3.42;;
23668;SDS011;12011;47.422;15.018;2023-02-28T00:07:05;3.65;;;3.64;;
23668;SDS011;12011;47.422;15.018;2023-02-28T00:09:38;4.04;;;4.04;;
23668;SDS011;12011;47.422;15.018;2023-02-28T00:12:10;3.74;;;3.74;;
23668;SDS011;12011;47.422;15.018;2023-02-28T00:14:42;3.52;;;3.51;;
23668;SDS011;12011;47.422;15.018;2023-02-28T00:17:16;3.76;;;3.76;;
23668;SDS011;12011;47.422;15.018;2023-02-28T00:19:50;4.05;;;4.05;;
23668;SDS011;12011;47.422;15.018;2023-02-28T00:22:26;3.60;;;3.60;;
23668;SDS011;12011;47.422;15.018;2023-02-28T00:24:59;3.53;;;3.53;;
23668;SDS011;12011;47.422;15.018;2023-02-28T00:27:38;3.45;;;3.45;;
23668;SDS011;12011;47.422;15.018;2023-02-28T00:30:20;3.69;;;3.69;;
23668;SDS011;12011;47.422;15.018;2023-02-28T00:32:54;3.29;;;3.29;;
23668;SDS011;12011;47.422;15.018;2023-02-28T00:35:28;3.75;;;3.75;;
23668;SDS011;12011;47.422;15.018;2023-02-28T00:38:00;3.68;;;3.68;;
23668;SDS011;12011;47.422;15.018;2023-02-28T00:40:37;3.64;;;3.64;;
23668;SDS011;12011;47.422;15.018;2023-02-28T00:43:12;3.51;;;3.51;;
23668;SDS011;12011;47.422;15.018;2023-02-28T00:45:48;3.23;;;3.23;;
23668;SDS011;12011;47.422;15.018;2023-02-28T00:48:35;3.32;;;3.32;;
23668;SDS011;12011;47.422;15.018;2023-02-28T00:51:10;3.62;;;3.62;;
23668;SDS011;12011;47.422;15.018;2023-02-28T00:53:43;3.61;;;3.61;;
23668;SDS011;12011;47.422;15.018;2023-02-28T00:56:18;3.51;;;3.51;;
23668;SDS011;12011;47.422;15.018;2023-02-28T00:59:00;3.64;;;3.64;;
23668;SDS011;12011;47.422;15.018;2023-02-28T01:01:29;3.51;;;3.51;;
23668;SDS011;12011;47.422;15.018;2023-02-28T01:04:05;3.40;;;3.40;;
23668;SDS011;12011;47.422;15.018;2023-02-28T01:06:41;3.72;;;3.72;;
23668;SDS011;12011;47.422;15.018;2023-02-28T01:09:17;3.50;;;3.50;;
23668;SDS011;12011;47.422;15.018;2023-02-28T01:11:52;3.15;;;3.15;;
23668;SDS011;12011;47.422;15.018;2023-02-28T01:14:27;3.53;;;3.53;;
23668;SDS011;12011;47.422;15.018;2023-02-28T01:17:03;3.25;;;3.25;;
23668;SDS011;12011;47.422;15.018;2023-02-28T01:19:36;3.49;;;3.49;;
23668;SDS011;12011;47.422;15.018;2023-02-28T01:22:09;3.29;;;3.29;;
23668;SDS011;12011;47.422;15.018;2023-02-28T01:24:49;3.50;;;3.50;;
23668;SDS011;12011;47.422;15.018;2023-02-28T01:27:27;3.72;;;3.72;;
23668;SDS011;12011;47.422;15.018;2023-02-28T01:30:16;3.53;;;3.53;;
23668;SDS011;12011;47.422;15.018;2023-02-28T01:32:47;3.36;;;3.36;;
23668;SDS011;12011;47.422;15.018;2023-02-28T01:35:19;3.59;;;3.59;;
23668;SDS011;12011;47.422;15.018;2023-02-28T01:37:49;3.89;;;3.89;;
23668;SDS011;12011;47.422;15.018;2023-02-28T01:40:24;3.44;;;3.44;;
23668;SDS011;12011;47.422;15.018;2023-02-28T01:43:04;3.40;;;3.40;;
23668;SDS011;12011;47.422;15.018;2023-02-28T01:45:56;3.77;;;3.77;;
23668;SDS011;12011;47.422;15.018;2023-02-28T01:48:30;3.71;;;3.71;;
23668;SDS011;12011;47.422;15.018;2023-02-28T01:51:11;3.69;;;3.69;;
23668;SDS011;12011;47.422;15.018;2023-02-28T01:53:55;3.39;;;3.39;;
23668;SDS011;12011;47.422;15.018;2023-02-28T01:56:41;3.59;;;3.59;;
23668;SDS011;12011;47.422;15.018;2023-02-28T01:59:27;3.62;;;3.62;;
23668;SDS011;12011;47.422;15.018;2023-02-28T02:02:06;3.73;;;3.73;;
23668;SDS011;12011;47.422;15.018;2023-02-28T02:04:39;3.53;;;3.53;;
23668;SDS011;12011;47.422;15.018;2023-02-28T02:07:22;3.55;;;3.55;;
23668;SDS011;12011;47.422;15.018;2023-02-28T02:09:59;3.71;;;3.71;;
23668;SDS011;12011;47.422;15.018;2023-02-28T02:12:56;3.79;;;3.79;;
23668;SDS011;12011;47.422;15.018;2023-02-28T02:15:58;3.76;;;3.76;;
23668;SDS011;12011;47.422;15.018;2023-02-28T02:18:52;3.79;;;3.79;;
23668;SDS011;12011;47.422;15.018;2023-02-28T02:21:43;3.87;;;3.87;;
23668;SDS011;12011;47.422;15.018;2023-02-28T02:25:10;3.81;;;3.81;;
23668;SDS011;12011;47.422;15.018;2023-02-28T02:34:58;4.08;;;4.08;;
23668;SDS011;12011;47.422;15.018;2023-02-28T02:37:43;4.24;;;4.24;;
23668;SDS011;12011;47.422;15.018;2023-02-28T02:40:23;4.22;;;4.22;;
23668;SDS011;12011;47.422;15.018;2023-02-28T02:43:07;4.34;;;4.34;;
23668;SDS011;12011;47.422;15.018;2023-02-28T02:45:56;4.19;;;4.15;;
23668;SDS011;12011;47.422;15.018;2023-02-28T02:48:50;4.09;;;4.07;;
23668;SDS011;12011;47.422;15.018;2023-02-28T02:51:31;4.44;;;4.44;;
23668;SDS011;12011;47.422;15.018;2023-02-28T02:54:08;4.24;;;4.24;;
23668;SDS011;12011;47.422;15.018;2023-02-28T02:56:45;4.39;;;4.39;;
23668;SDS011;12011;47.422;15.018;2023-02-28T02:59:32;4.61;;;4.60;;
23668;SDS011;12011;47.422;15.018;2023-02-28T03:02:16;4.25;;;4.25;;
23668;SDS011;12011;47.422;15.018;2023-02-28T03:04:53;4.26;;;4.25;;
23668;SDS011;12011;47.422;15.018;2023-02-28T03:07:36;4.27;;;4.25;;
23668;SDS011;12011;47.422;15.018;2023-02-28T03:13:09;4.05;;;4.05;;
23668;SDS011;12011;47.422;15.018;2023-02-28T03:16:03;4.21;;;4.21;;
23668;SDS011;12011;47.422;15.018;2023-02-28T03:19:02;4.25;;;4.25;;
23668;SDS011;12011;47.422;15.018;2023-02-28T03:22:14;4.22;;;4.22;;
23668;SDS011;12011;47.422;15.018;2023-02-28T03:25:03;4.41;;;4.40;;
23668;SDS011;12011;47.422;15.018;2023-02-28T03:27:46;4.61;;;4.60;;
23668;SDS011;12011;47.422;15.018;2023-02-28T03:30:33;3.99;;;3.97;;
23668;SDS011;12011;47.422;15.018;2023-02-28T03:33:14;4.39;;;4.37;;
23668;SDS011;12011;47.422;15.018;2023-02-28T03:36:09;4.08;;;4.07;;
23668;SDS011;12011;47.422;15.018;2023-02-28T03:38:49;4.32;;;4.32;;
23668;SDS011;12011;47.422;15.018;2023-02-28T03:41:35;4.28;;;4.28;;
23668;SDS011;12011;47.422;15.018;2023-02-28T03:44:21;4.19;;;4.18;;
23668;SDS011;12011;47.422;15.018;2023-02-28T03:47:02;4.43;;;4.43;;
23668;SDS011;12011;47.422;15.018;2023-02-28T03:49:42;5.26;;;5.26;;
23668;SDS011;12011;47.422;15.018;2023-02-28T03:52:22;5.66;;;5.65;;
23668;SDS011;12011;47.422;15.018;2023-02-28T03:55:03;6.82;;;6.82;;
23668;SDS011;12011;47.422;15.018;2023-02-28T03:57:51;6.19;;;6.18;;
23668;SDS011;12011;47.422;15.018;2023-02-28T04:00:33;5.54;;;5.52;;
23668;SDS011;12011;47.422;15.018;2023-02-28T04:03:23;5.04;;;5.03;;
23668;SDS011;12011;47.422;15.018;2023-02-28T04:06:01;6.03;;;6.01;;
23668;SDS011;12011;47.422;15.018;2023-02-28T04:08:52;6.52;;;6.49;;
23668;SDS011;12011;47.422;15.018;2023-02-28T04:11:27;6.01;;;5.98;;
23668;SDS011;12011;47.422;15.018;2023-02-28T04:14:06;5.58;;;5.57;;
23668;SDS011;12011;47.422;15.018;2023-02-28T04:16:39;4.90;;;4.90;;
23668;SDS011;12011;47.422;15.018;2023-02-28T04:19:20;4.48;;;4.48;;
23668;SDS011;12011;47.422;15.018;2023-02-28T04:21:50;4.58;;;4.58;;
23668;SDS011;12011;47.422;15.018;2023-02-28T04:24:33;4.66;;;4.66;;
23668;SDS011;12011;47.422;15.018;2023-02-28T04:27:08;4.37;;;4.37;;
23668;SDS011;12011;47.422;15.018;2023-02-28T04:29:46;4.43;;;4.43;;
23668;SDS011;12011;47.422;15.018;2023-02-28T04:32:20;4.48;;;4.47;;
23668;SDS011;12011;47.422;15.018;2023-02-28T04:34:54;4.20;;;4.20;;
23668;SDS011;12011;47.422;15.018;2023-02-28T04:37:32;4.08;;;4.08;;
23668;SDS011;12011;47.422;15.018;2023-02-28T04:40:07;4.33;;;4.33;;
23668;SDS011;12011;47.422;15.018;2023-02-28T04:42:41;4.45;;;4.45;;
23668;SDS011;12011;47.422;15.018;2023-02-28T04:45:17;4.41;;;4.41;;
23668;SDS011;12011;47.422;15.018;2023-02-28T04:47:50;4.52;;;4.51;;
23668;SDS011;12011;47.422;15.018;2023-02-28T04:50:22;4.73;;;4.73;;
23668;SDS011;12011;47.422;15.018;2023-02-28T04:52:54;4.38;;;4.37;;
23668;SDS011;12011;47.422;15.018;2023-02-28T04:55:26;4.91;;;4.91;;
23668;SDS011;12011;47.422;15.018;2023-02-28T04:58:00;4.76;;;4.75;;
23668;SDS011;12011;47.422;15.018;2023-02-28T05:00:44;4.71;;;4.71;;
23668;SDS011;12011;47.422;15.018;2023-02-28T05:03:15;5.01;;;5.00;;
23668;SDS011;12011;47.422;15.018;2023-02-28T05:05:50;4.83;;;4.83;;
23668;SDS011;12011;47.422;15.018;2023-02-28T05:08:32;4.68;;;4.67;;
23668;SDS011;12011;47.422;15.018;2023-02-28T05:11:06;4.47;;;4.46;;
23668;SDS011;12011;47.422;15.018;2023-02-28T05:13:43;4.74;;;4.74;;
23668;SDS011;12011;47.422;15.018;2023-02-28T05:16:23;4.87;;;4.86;;
23668;SDS011;12011;47.422;15.018;2023-02-28T05:18:53;5.08;;;5.08;;
23668;SDS011;12011;47.422;15.018;2023-02-28T05:21:26;4.78;;;4.77;;
23668;SDS011;12011;47.422;15.018;2023-02-28T05:24:02;4.64;;;4.63;;
23668;SDS011;12011;47.422;15.018;2023-02-28T05:26:38;4.87;;;4.85;;
23668;SDS011;12011;47.422;15.018;2023-02-28T05:29:12;5.02;;;5.02;;
23668;SDS011;12011;47.422;15.018;2023-02-28T05:31:46;5.29;;;5.29;;
23668;SDS011;12011;47.422;15.018;2023-02-28T05:34:16;4.97;;;4.97;;
23668;SDS011;12011;47.422;15.018;2023-02-28T05:36:50;5.60;;;5.60;;
23668;SDS011;12011;47.422;15.018;2023-02-28T05:39:25;5.35;;;5.33;;
23668;SDS011;12011;47.422;15.018;2023-02-28T05:42:01;5.48;;;5.48;;
23668;SDS011;12011;47.422;15.018;2023-02-28T05:44:35;5.28;;;5.27;;
23668;SDS011;12011;47.422;15.018;2023-02-28T05:47:21;5.49;;;5.49;;
23668;SDS011;12011;47.422;15.018;2023-02-28T05:49:50;5.08;;;5.08;;
23668;SDS011;12011;47.422;15.018;2023-02-28T05:52:20;5.22;;;5.22;;
23668;SDS011;12011;47.422;15.018;2023-02-28T05:54:49;5.29;;;5.28;;
23668;SDS011;12011;47.422;15.018;2023-02-28T05:57:19;5.10;;;5.09;;
23668;SDS011;12011;47.422;15.018;2023-02-28T05:59:48;5.27;;;5.27;;
23668;SDS011;12011;47.422;15.018;2023-02-28T06:02:18;4.98;;;4.98;;
23668;SDS011;12011;47.422;15.018;2023-02-28T06:04:50;4.84;;;4.84;;
23668;SDS011;12011;47.422;15.018;2023-02-28T06:07:19;5.19;;;5.17;;
23668;SDS011;12011;47.422;15.018;2023-02-28T06:09:48;5.24;;;5.22;;
23668;SDS011;12011;47.422;15.018;2023-02-28T06:12:18;6.36;;;6.33;;
23668;SDS011;12011;47.422;15.018;2023-02-28T06:14:47;6.03;;;6.02;;
23668;SDS011;12011;47.422;15.018;2023-02-28T06:17:17;5.81;;;5.78;;
23668;SDS011;12011;47.422;15.018;2023-02-28T06:19:49;5.56;;;5.55;;
23668;SDS011;12011;47.422;15.018;2023-02-28T06:22:19;5.26;;;5.26;;
23668;SDS011;12011;47.422;15.018;2023-02-28T06:24:48;5.38;;;5.38;;
23668;SDS011;12011;47.422;15.018;2023-02-28T06:27:18;5.38;;;5.36;;
23668;SDS011;12011;47.422;15.018;2023-02-28T06:29:47;4.99;;;4.98;;
23668;SDS011;12011;47.422;15.018;2023-02-28T06:32:17;5.23;;;5.20;;
23668;SDS011;12011;47.422;15.018;2023-02-28T06:34:49;5.90;;;5.86;;
23668;SDS011;12011;47.422;15.018;2023-02-28T06:37:18;8.07;;;8.03;;
23668;SDS011;12011;47.422;15.018;2023-02-28T06:39:51;7.75;;;7.71;;
23668;SDS011;12011;47.422;15.018;2023-02-28T06:42:21;6.21;;;6.19;;
23668;SDS011;12011;47.422;15.018;2023-02-28T06:44:54;6.77;;;6.76;;
23668;SDS011;12011;47.422;15.018;2023-02-28T06:47:24;5.86;;;5.86;;
23668;SDS011;12011;47.422;15.018;2023-02-28T06:49:56;5.46;;;5.45;;
23668;SDS011;12011;47.422;15.018;2023-02-28T06:52:26;5.21;;;5.20;;
23668;SDS011;12011;47.422;15.018;2023-02-28T06:54:56;4.85;;;4.85;;
23668;SDS011;12011;47.422;15.018;2023-02-28T06:57:29;5.29;;;5.29;;
23668;SDS011;12011;47.422;15.018;2023-02-28T06:59:59;4.90;;;4.90;;
23668;SDS011;12011;47.422;15.018;2023-02-28T07:02:33;5.00;;;5.00;;
23668;SDS011;12011;47.422;15.018;2023-02-28T07:05:05;4.97;;;4.97;;
23668;SDS011;12011;47.422;15.018;2023-02-28T07:07:36;5.23;;;5.23;;
23668;SDS011;12011;47.422;15.018;2023-02-28T07:10:09;4.99;;;4.99;;
23668;SDS011;12011;47.422;15.018;2023-02-28T07:12:42;5.35;;;5.35;;
23668;SDS011;12011;47.422;15.018;2023-02-28T07:15:11;5.40;;;5.40;;
23668;SDS011;12011;47.422;15.018;2023-02-28T07:17:41;5.34;;;5.33;;
23668;SDS011;12011;47.422;15.018;2023-02-28T07:20:13;5.30;;;5.30;;
23668;SDS011;12011;47.422;15.018;2023-02-28T07:22:43;5.07;;;5.07;;
23668;SDS011;12011;47.422;15.018;2023-02-28T07:25:20;5.31;;;5.31;;
23668;SDS011;12011;47.422;15.018;2023-02-28T07:27:50;5.45;;;5.45;;
23668;SDS011;12011;47.422;15.018;2023-02-28T07:30:21;5.60;;;5.60;;
23668;SDS011;12011;47.422;15.018;2023-02-28T07:32:51;5.68;;;5.68;;
23668;SDS011;12011;47.422;15.018;2023-02-28T07:35:24;5.68;;;5.65;;
23668;SDS011;12011;47.422;15.018;2023-02-28T07:37:53;5.52;;;5.50;;
23668;SDS011;12011;47.422;15.018;2023-02-28T07:40:23;5.54;;;5.51;;
23668;SDS011;12011;47.422;15.018;2023-02-28T07:42:52;5.41;;;5.41;;
23668;SDS011;12011;47.422;15.018;2023-02-28T07:45:22;5.56;;;5.56;;
23668;SDS011;12011;47.422;15.018;2023-02-28T07:47:51;5.76;;;5.75;;
23668;SDS011;12011;47.422;15.018;2023-02-28T07:50:24;5.86;;;5.83;;
23668;SDS011;12011;47.422;15.018;2023-02-28T07:52:54;5.95;;;5.95;;
23668;SDS011;12011;47.422;15.018;2023-02-28T07:55:24;5.56;;;5.54;;
23668;SDS011;12011;47.422;15.018;2023-02-28T07:57:53;5.87;;;5.87;;
23668;SDS011;12011;47.422;15.018;2023-02-28T08:00:23;5.90;;;5.89;;
23668;SDS011;12011;47.422;15.018;2023-02-28T08:02:57;6.38;;;6.35;;
23668;SDS011;12011;47.422;15.018;2023-02-28T08:05:29;6.16;;;6.14;;
23668;SDS011;12011;47.422;15.018;2023-02-28T08:07:59;6.26;;;6.26;;
23668;SDS011;12011;47.422;15.018;2023-02-28T08:10:28;5.90;;;5.90;;
23668;SDS011;12011;47.422;15.018;2023-02-28T08:12:58;6.09;;;6.08;;
23668;SDS011;12011;47.422;15.018;2023-02-28T08:15:27;6.26;;;6.22;;
23668;SDS011;12011;47.422;15.018;2023-02-28T08:17:57;6.01;;;5.96;;
23668;SDS011;12011;47.422;15.018;2023-02-28T08:20:30;6.10;;;6.04;;
23668;SDS011;12011;47.422;15.018;2023-02-28T08:22:59;6.08;;;6.02;;
23668;SDS011;12011;47.422;15.018;2023-02-28T08:25:28;6.52;;;6.49;;
23668;SDS011;12011;47.422;15.018;2023-02-28T08:27:58;6.11;;;6.07;;
23668;SDS011;12011;47.422;15.018;2023-02-28T08:30:27;6.31;;;6.29;;
23668;SDS011;12011;47.422;15.018;2023-02-28T08:32:57;6.08;;;6.05;;
23668;SDS011;12011;47.422;15.018;2023-02-28T08:35:29;6.38;;;6.35;;
23668;SDS011;12011;47.422;15.018;2023-02-28T08:37:59;6.47;;;6.46;;
23668;SDS011;12011;47.422;15.018;2023-02-28T08:40:28;6.47;;;6.47;;
23668;SDS011;12011;47.422;15.018;2023-02-28T08:42:58;6.92;;;6.92;;
23668;SDS011;12011;47.422;15.018;2023-02-28T08:45:27;6.85;;;6.81;;
23668;SDS011;12011;47.422;15.018;2023-02-28T08:47:57;7.06;;;7.00;;
23668;SDS011;12011;47.422;15.018;2023-02-28T08:50:26;6.93;;;6.89;;
23668;SDS011;12011;47.422;15.018;2023-02-28T08:52:58;7.35;;;7.31;;
23668;SDS011;12011;47.422;15.018;2023-02-28T08:55:28;7.69;;;7.67;;
23668;SDS011;12011;47.422;15.018;2023-02-28T08:57:57;7.07;;;7.07;;
23668;SDS011;12011;47.422;15.018;2023-02-28T09:00:27;7.02;;;7.02;;
23668;SDS011;12011;47.422;15.018;2023-02-28T09:02:56;7.08;;;7.06;;
23668;SDS011;12011;47.422;15.018;2023-02-28T09:05:26;6.13;;;6.10;;
23668;SDS011;12011;47.422;15.018;2023-02-28T09:07:58;6.09;;;6.04;;
23668;SDS011;12011;47.422;15.018;2023-02-28T09:10:27;6.17;;;6.14;;
23668;SDS011;12011;47.422;15.018;2023-02-28T09:12:56;6.99;;;6.96;;
23668;SDS011;12011;47.422;15.018;2023-02-28T09:15:26;6.20;;;6.17;;
23668;SDS011;12011;47.422;15.018;2023-02-28T09:17:55;6.06;;;6.00;;
23668;SDS011;12011;47.422;15.018;2023-02-28T09:20:25;6.67;;;6.61;;
23668;SDS011;12011;47.422;15.018;2023-02-28T09:22:54;6.29;;;6.26;;
23668;SDS011;12011;47.422;15.018;2023-02-28T09:25:26;6.34;;;6.30;;
23668;SDS011;12011;47.422;15.018;2023-02-28T09:27:56;6.65;;;6.61;;
23668;SDS011;12011;47.422;15.018;2023-02-28T09:30:25;6.30;;;6.30;;
23668;SDS011;12011;47.422;15.018;2023-02-28T09:32:55;6.01;;;5.98;;
23668;SDS011;12011;47.422;15.018;2023-02-28T09:35:25;6.23;;;6.21;;
23668;SDS011;12011;47.422;15.018;2023-02-28T09:37:58;6.20;;;6.18;;
23668;SDS011;12011;47.422;15.018;2023-02-28T09:40:28;5.97;;;5.91;;
23668;SDS011;12011;47.422;15.018;2023-02-28T09:42:59;6.58;;;6.52;;
23668;SDS011;12011;47.422;15.018;2023-02-28T09:45:29;6.37;;;6.32;;
23668;SDS011;12011;47.422;15.018;2023-02-28T09:48:04;6.88;;;6.83;;
23668;SDS011;12011;47.422;15.018;2023-02-28T09:50:43;6.64;;;6.58;;
23668;SDS011;12011;47.422;15.018;2023-02-28T09:53:22;6.52;;;6.47;;
23668;SDS011;12011;47.422;15.018;2023-02-28T09:56:01;6.34;;;6.28;;
23668;SDS011;12011;47.422;15.018;2023-02-28T09:58:37;6.25;;;6.23;;
23668;SDS011;12011;47.422;15.018;2023-02-28T10:01:17;6.34;;;6.28;;
23668;SDS011;12011;47.422;15.018;2023-02-28T10:03:56;6.59;;;6.52;;
23668;SDS011;12011;47.422;15.018;2023-02-28T10:06:33;6.33;;;6.30;;
23668;SDS011;12011;47.422;15.018;2023-02-28T10:09:17;5.99;;;5.98;;
23668;SDS011;12011;47.422;15.018;2023-02-28T10:11:52;5.84;;;5.84;;
23668;SDS011;12011;47.422;15.018;2023-02-28T10:14:25;6.14;;;6.11;;
23668;SDS011;12011;47.422;15.018;2023-02-28T10:17:01;5.89;;;5.86;;
23668;SDS011;12011;47.422;15.018;2023-02-28T10:19:40;6.29;;;6.25;;
23668;SDS011;12011;47.422;15.018;2023-02-28T10:22:18;5.65;;;5.60;;
23668;SDS011;12011;47.422;15.018;2023-02-28T10:24:56;6.07;;;6.02;;
23668;SDS011;12011;47.422;15.018;2023-02-28T10:27:29;5.96;;;5.91;;
23668;SDS011;12011;47.422;15.018;2023-02-28T10:30:00;6.80;;;6.73;;
23668;SDS011;12011;47.422;15.018;2023-02-28T10:32:32;6.57;;;6.47;;
23668;SDS011;12011;47.422;15.018;2023-02-28T10:35:07;6.23;;;6.20;;
23668;SDS011;12011;47.422;15.018;2023-02-28T10:37:45;6.49;;;6.47;;
23668;SDS011;12011;47.422;15.018;2023-02-28T10:43:15;6.32;;;6.30;;
23668;SDS011;12011;47.422;15.018;2023-02-28T10:45:54;5.93;;;5.91;;
23668;SDS011;12011;47.422;15.018;2023-02-28T10:48:30;5.96;;;5.94;;
23668;SDS011;12011;47.422;15.018;2023-02-28T10:51:04;6.00;;;5.96;;
23668;SDS011;12011;47.422;15.018;2023-02-28T10:53:44;5.98;;;5.95;;
23668;SDS011;12011;47.422;15.018;2023-02-28T10:56:20;6.51;;;6.49;;
23668;SDS011;12011;47.422;15.018;2023-02-28T10:58:53;6.64;;;6.56;;
23668;SDS011;12011;47.422;15.018;2023-02-28T11:01:34;6.45;;;6.42;;
23668;SDS011;12011;47.422;15.018;2023-02-28T11:04:17;6.11;;;6.11;;
23668;SDS011;12011;47.422;15.018;2023-02-28T11:06:56;6.34;;;6.32;;
23668;SDS011;12011;47.422;15.018;2023-02-28T11:09:30;5.89;;;5.85;;
23668;SDS011;12011;47.422;15.018;2023-02-28T11:12:07;6.26;;;6.21;;
23668;SDS011;12011;47.422;15.018;2023-02-28T11:14:52;6.41;;;6.39;;
23668;SDS011;12011;47.422;15.018;2023-02-28T11:17:27;6.17;;;6.13;;
23668;SDS011;12011;47.422;15.018;2023-02-28T11:20:01;6.07;;;6.01;;
23668;SDS011;12011;47.422;15.018;2023-02-28T11:22:36;6.06;;;6.02;;
23668;SDS011;12011;47.422;15.018;2023-02-28T11:25:16;5.86;;;5.85;;
23668;SDS011;12011;47.422;15.018;2023-02-28T11:27:55;6.10;;;6.10;;
23668;SDS011;12011;47.422;15.018;2023-02-28T11:30:28;5.53;;;5.52;;
23668;SDS011;12011;47.422;15.018;2023-02-28T11:35:57;5.57;;;5.56;;
23668;SDS011;12011;47.422;15.018;2023-02-28T11:38:31;5.54;;;5.54;;
23668;SDS011;12011;47.422;15.018;2023-02-28T11:41:07;5.50;;;5.50;;
23668;SDS011;12011;47.422;15.018;2023-02-28T11:44:08;5.27;;;5.27;;
23668;SDS011;12011;47.422;15.018;2023-02-28T11:46:58;6.00;;;5.98;;
23668;SDS011;12011;47.422;15.018;2023-02-28T11:49:41;5.89;;;5.86;;
23668;SDS011;12011;47.422;15.018;2023-02-28T11:52:28;5.65;;;5.64;;
23668;SDS011;12011;47.422;15.018;2023-02-28T11:55:16;5.63;;;5.63;;
23668;SDS011;12011;47.422;15.018;2023-02-28T11:57:56;5.98;;;5.98;;
23668;SDS011;12011;47.422;15.018;2023-02-28T12:00:54;5.83;;;5.83;;
23668;SDS011;12011;47.422;15.018;2023-02-28T12:03:42;5.95;;;5.95;;
23668;SDS011;12011;47.422;15.018;2023-02-28T12:06:21;6.06;;;6.06;;
23668;SDS011;12011;47.422;15.018;2023-02-28T12:09:04;5.61;;;5.57;;
23668;SDS011;12011;47.422;15.018;2023-02-28T12:12:00;5.92;;;5.90;;
23668;SDS011;12011;47.422;15.018;2023-02-28T12:18:04;5.73;;;5.71;;
23668;SDS011;12011;47.422;15.018;2023-02-28T12:21:10;5.49;;;5.47;;
23668;SDS011;12011;47.422;15.018;2023-02-28T12:23:57;5.50;;;5.48;;
23668;SDS011;12011;47.422;15.018;2023-02-28T12:27:22;4.82;;;4.81;;
23668;SDS011;12011;47.422;15.018;2023-02-28T12:30:02;4.66;;;4.66;;
23668;SDS011;12011;47.422;15.018;2023-02-28T12:32:45;4.66;;;4.66;;
23668;SDS011;12011;47.422;15.018;2023-02-28T12:35:32;4.76;;;4.76;;
23668;SDS011;12011;47.422;15.018;2023-02-28T12:38:17;4.33;;;4.33;;
23668;SDS011;12011;47.422;15.018;2023-02-28T12:40:53;4.59;;;4.59;;
23668;SDS011;12011;47.422;15.018;2023-02-28T12:43:40;4.22;;;4.22;;
23668;SDS011;12011;47.422;15.018;2023-02-28T12:46:22;4.30;;;4.30;;
23668;SDS011;12011;47.422;15.018;2023-02-28T12:49:01;4.34;;;4.31;;
23668;SDS011;12011;47.422;15.018;2023-02-28T12:51:48;4.33;;;4.32;;
23668;SDS011;12011;47.422;15.018;2023-02-28T12:54:22;4.60;;;4.59;;
23668;SDS011;12011;47.422;15.018;2023-02-28T12:57:01;4.45;;;4.43;;
23668;SDS011;12011;47.422;15.018;2023-02-28T12:59:45;4.43;;;4.41;;
23668;SDS011;12011;47.422;15.018;2023-02-28T13:09:12;4.15;;;4.13;;
23668;SDS011;12011;47.422;15.018;2023-02-28T13:11:45;4.78;;;4.76;;
23668;SDS011;12011;47.422;15.018;2023-02-28T13:14:21;4.49;;;4.47;;
23668;SDS011;12011;47.422;15.018;2023-02-28T13:16:57;4.47;;;4.44;;
23668;SDS011;12011;47.422;15.018;2023-02-28T13:19:32;4.72;;;4.71;;
23668;SDS011;12011;47.422;15.018;2023-02-28T13:22:10;4.60;;;4.57;;
23668;SDS011;12011;47.422;15.018;2023-02-28T13:24:52;4.39;;;4.33;;
23668;SDS011;12011;47.422;15.018;2023-02-28T13:27:33;4.49;;;4.45;;
23668;SDS011;12011;47.422;15.018;2023-02-28T13:33:27;4.85;;;4.82;;
23668;SDS011;12011;47.422;15.018;2023-02-28T13:36:08;4.72;;;4.70;;
23668;SDS011;12011;47.422;15.018;2023-02-28T13:38:52;4.70;;;4.69;;
23668;SDS011;12011;47.422;15.018;2023-02-28T13:44:17;5.22;;;5.21;;
23668;SDS011;12011;47.422;15.018;2023-02-28T13:49:52;4.47;;;4.43;;
23668;SDS011;12011;47.422;15.018;2023-02-28T13:52:22;4.44;;;4.42;;
23668;SDS011;12011;47.422;15.018;2023-02-28T13:54:58;4.73;;;4.71;;
23668;SDS011;12011;47.422;15.018;2023-02-28T13:57:59;4.79;;;4.77;;
23668;SDS011;12011;47.422;15.018;2023-02-28T14:01:00;4.41;;;4.38;;
23668;SDS011;12011;47.422;15.018;2023-02-28T14:04:11;4.73;;;4.70;;
23668;SDS011;12011;47.422;15.018;2023-02-28T14:07:26;4.35;;;4.35;;
23668;SDS011;12011;47.422;15.018;2023-02-28T14:10:01;4.66;;;4.62;;
23668;SDS011;12011;47.422;15.018;2023-02-28T14:12:51;4.56;;;4.52;;
23668;SDS011;12011;47.422;15.018;2023-02-28T14:18:26;4.77;;;4.74;;
23668;SDS011;12011;47.422;15.018;2023-02-28T14:27:29;4.68;;;4.63;;
23668;SDS011;12011;47.422;15.018;2023-02-28T14:30:25;4.52;;;4.46;;
23668;SDS011;12011;47.422;15.018;2023-02-28T14:33:25;4.56;;;4.52;;
23668;SDS011;12011;47.422;15.018;2023-02-28T14:36:17;4.95;;;4.93;;
23668;SDS011;12011;47.422;15.018;2023-02-28T14:38:52;4.54;;;4.51;;
23668;SDS011;12011;47.422;15.018;2023-02-28T14:41:28;4.59;;;4.59;;
23668;SDS011;12011;47.422;15.018;2023-02-28T14:44:01;4.49;;;4.49;;
23668;SDS011;12011;47.422;15.018;2023-02-28T14:46:45;4.51;;;4.50;;
23668;SDS011;12011;47.422;15.018;2023-02-28T14:49:21;4.72;;;4.70;;
23668;SDS011;12011;47.422;15.018;2023-02-28T14:52:05;4.39;;;4.37;;
23668;SDS011;12011;47.422;15.018;2023-02-28T14:54:41;4.25;;;4.23;;
23668;SDS011;12011;47.422;15.018;2023-02-28T14:57:20;4.23;;;4.22;;
23668;SDS011;12011;47.422;15.018;2023-02-28T15:00:03;4.38;;;4.38;;
23668;SDS011;12011;47.422;15.018;2023-02-28T15:02:43;4.33;;;4.33;;
23668;SDS011;12011;47.422;15.018;2023-02-28T15:05:21;4.22;;;4.21;;
23668;SDS011;12011;47.422;15.018;2023-02-28T15:08:03;4.46;;;4.44;;
23668;SDS011;12011;47.422;15.018;2023-02-28T15:10:40;4.99;;;4.95;;
23668;SDS011;12011;47.422;15.018;2023-02-28T15:13:14;4.52;;;4.49;;
23668;SDS011;12011;47.422;15.018;2023-02-28T15:15:45;4.30;;;4.26;;
23668;SDS011;12011;47.422;15.018;2023-02-28T15:18:30;4.62;;;4.59;;
23668;SDS011;12011;47.422;15.018;2023-02-28T15:21:12;4.87;;;4.82;;
23668;SDS011;12011;47.422;15.018;2023-02-28T15:23:48;4.52;;;4.49;;
23668;SDS011;12011;47.422;15.018;2023-02-28T15:26:25;4.71;;;4.68;;
23668;SDS011;12011;47.422;15.018;2023-02-28T15:29:00;5.25;;;5.21;;
23668;SDS011;12011;47.422;15.018;2023-02-28T15:31:38;4.78;;;4.75;;
23668;SDS011;12011;47.422;15.018;2023-02-28T15:34:17;5.04;;;4.98;;
23668;SDS011;12011;47.422;15.018;2023-02-28T15:36:50;4.70;;;4.66;;
23668;SDS011;12011;47.422;15.018;2023-02-28T15:39:20;4.72;;;4.68;;
23668;SDS011;12011;47.422;15.018;2023-02-28T15:41:52;4.49;;;4.45;;
23668;SDS011;12011;47.422;15.018;2023-02-28T15:44:39;4.81;;;4.78;;
23668;SDS011;12011;47.422;15.018;2023-02-28T15:47:14;4.69;;;4.67;;
23668;SDS011;12011;47.422;15.018;2023-02-28T15:49:52;4.63;;;4.62;;
23668;SDS011;12011;47.422;15.018;2023-02-28T15:52:27;4.94;;;4.93;;
23668;SDS011;12011;47.422;15.018;2023-02-28T15:55:07;5.01;;;4.98;;
23668;SDS011;12011;47.422;15.018;2023-02-28T15:57:39;5.21;;;5.16;;
23668;SDS011;12011;47.422;15.018;2023-02-28T16:00:12;5.36;;;5.32;;
23668;SDS011;12011;47.422;15.018;2023-02-28T16:02:48;5.25;;;5.22;;
23668;SDS011;12011;47.422;15.018;2023-02-28T16:05:23;5.55;;;5.51;;
23668;SDS011;12011;47.422;15.018;2023-02-28T16:08:01;5.73;;;5.69;;
23668;SDS011;12011;47.422;15.018;2023-02-28T16:10:43;5.27;;;5.26;;
23668;SDS011;12011;47.422;15.018;2023-02-28T16:13:13;5.11;;;5.10;;
23668;SDS011;12011;47.422;15.018;2023-02-28T16:15:43;5.66;;;5.61;;
23668;SDS011;12011;47.422;15.018;2023-02-28T16:18:14;5.58;;;5.55;;